Flight Track Log - Related Links

Times and Time Zones

All times are in EDT time to prevent confusion due to time zone crossing. See the DAL1042 flight status page for this flight to view local times or setup timezone preferences in your user account.

Time Position Orientation Groundspeed Altitude Reporting Facility
EDT Latitude Longitude Course Direction KTS MPH feet Rate Location/Type
Sun 11:04:17 AM 33.6500 -117.8833 90° East 150 173 1,600  Level Southern California TRACON
Sun 11:05:17 AM 33.6167 -117.9000 203° Southwest 160 184 3,400 1,273 Climbing Southern California TRACON
Sun 11:05:56 AM 33.5875 -117.8961 174° South 159 183 3,700 1,129 Climbing Los Angeles Center
Sun 11:06:58 AM 33.5486 -117.8294 125° Southeast 236 272 5,300 2,274 Climbing Los Angeles Center
Sun 11:07:00 AM 33.5491 -117.5136 66° East  Level FlightAware Approximate
Sun 11:08:00 AM 33.5833 -117.3749 90° East  Level FlightAware Approximate
Sun 11:08:00 AM 33.5864 -117.7431 62° Northeast 276 318 8,400  Level Los Angeles Center
Sun 11:09:00 AM 33.5834 -117.2279 90° East  Level FlightAware Approximate
Sun 11:09:01 AM 33.5872 -117.6439 89° East 291 335 10,700  Level Los Angeles Center
Sun 11:10:03 AM 33.5844 -117.5294 92° East 323 372 12,000 1,756 Climbing Los Angeles Center
Sun 11:11:04 AM 33.5842 -117.4014 90° East 372 428 14,300 2,244 Climbing Los Angeles Center
Sun 11:12:06 AM 33.5911 -117.2689 86° East 396 456 16,600 2,177 Climbing Los Angeles Center
Sun 11:13:08 AM 33.5994 -117.1031 87° East 413 475 18,800 1,951 Climbing Los Angeles Center
Sun 11:14:09 AM 33.6044 -116.9586 88° East 428 493 20,600 1,659 Climbing Los Angeles Center
Sun 11:15:11 AM 33.6086 -116.8075 88° East 439 505 22,200 1,597 Climbing Los Angeles Center
Sun 11:16:13 AM 33.6133 -116.6544 88° East 453 521 23,900 1,512 Climbing Los Angeles Center
Sun 11:17:14 AM 33.6169 -116.5000 88° East 461 531 25,300 1,268 Climbing Los Angeles Center
Sun 11:18:16 AM 33.6228 -116.3400 87° East 475 547 26,500 1,161 Climbing Los Angeles Center
Sun 11:19:18 AM 33.6289 -116.1775 87° East 484 557 27,700 1,122 Climbing Los Angeles Center
Sun 11:20:19 AM 33.6375 -116.0106 86° East 498 573 28,800 1,268 Climbing Los Angeles Center
Sun 11:21:21 AM 33.6489 -115.8447 85° East 497 572 30,300 1,548 Climbing Los Angeles Center
Sun 11:22:23 AM 33.6625 -115.6464 85° East 496 571 32,000 1,317 Climbing Los Angeles Center
Sun 11:23:24 AM 33.6753 -115.4819 85° East 496 571 33,000 488 Climbing Los Angeles Center
Sun 11:24:26 AM 33.7142 -115.3233 74° East 494 568 33,000  Level Los Angeles Center
Sun 11:25:40 AM 33.7714 -115.1647 67° East 514 592 33,000  Level Los Angeles Center
Sun 11:26:42 AM 33.8394 -114.9731 67° East 518 596 33,000 293 Level Los Angeles Center
Sun 11:27:43 AM 33.8867 -114.8475 66° East 515 593 33,600 732 Climbing Los Angeles Center
Sun 11:28:45 AM 33.9533 -114.6564 67° East 517 595 34,500 823 Climbing Los Angeles Center
Sun 11:29:47 AM 34.0228 -114.4644 66° East 520 598 35,300 878 Climbing Los Angeles Center
Sun 11:30:48 AM 34.0789 -114.3047 67° East 518 596 36,300 872 Climbing Los Angeles Center
Sun 11:31:44 AM 34.1319 -114.1544 67° East 519 597 37,000 356 Climbing Albuquerque Center
Sun 11:32:46 AM 34.1869 -113.9956 67° East 516 594 37,000  Level Albuquerque Center
Sun 11:33:47 AM 34.2431 -113.8339 67° East 519 597 37,000  Level Albuquerque Center
Sun 11:34:49 AM 34.2986 -113.6736 67° East 518 596 37,000  Level Albuquerque Center
Sun 11:35:51 AM 34.3619 -113.4897 67° East 523 602 37,000  Level Albuquerque Center
Sun 11:36:52 AM 34.4172 -113.3264 68° East 524 603 37,000  Level Albuquerque Center
Sun 11:37:54 AM 34.4672 -113.1769 68° East 525 604 37,000  Level Albuquerque Center
Sun 11:38:56 AM 34.5228 -113.0150 67° East 525 604 37,000  Level Albuquerque Center
Sun 11:39:57 AM 34.5886 -112.8228 67° East 522 601 37,000  Level Albuquerque Center
Sun 11:40:59 AM 34.6417 -112.6597 68° East 524 603 37,000  Level Albuquerque Center
Sun 11:42:00 AM 34.6947 -112.4986 68° East 522 601 37,000  Level Albuquerque Center
Sun 11:43:02 AM 34.7328 -112.3417 74° East 518 596 37,000  Level Albuquerque Center
Sun 11:44:03 AM 34.7700 -112.1678 75° East 515 593 37,000  Level Albuquerque Center
Sun 11:45:05 AM 34.8067 -111.9997 75° East 516 594 37,000  Level Albuquerque Center
Sun 11:46:07 AM 34.8497 -111.7997 75° East 515 593 37,000  Level Albuquerque Center
Sun 11:47:08 AM 34.8864 -111.6306 75° East 516 594 37,000  Level Albuquerque Center
Sun 11:48:10 AM 34.9225 -111.4600 75° East 518 596 37,000  Level Albuquerque Center
Sun 11:49:11 AM 34.9586 -111.2889 76° East 521 600 37,000  Level Albuquerque Center
Sun 11:50:13 AM 34.9936 -111.1172 76° East 521 600 37,000  Level Albuquerque Center
Sun 11:51:15 AM 35.0294 -110.9478 75° East 518 596 37,000  Level Albuquerque Center
Sun 11:52:16 AM 35.0717 -110.7517 75° East 518 596 37,000  Level Albuquerque Center
Sun 11:53:18 AM 35.1067 -110.5875 75° East 521 600 37,000  Level Albuquerque Center
Sun 11:54:19 AM 35.1494 -110.3972 75° East 521 600 37,000 98 Level Albuquerque Center
Sun 11:55:21 AM 35.1856 -110.2344 75° East 520 598 37,200 871 Climbing Albuquerque Center
Sun 11:56:23 AM 35.2244 -110.0506 75° East 508 585 38,800 878 Climbing Albuquerque Center
Sun 11:57:24 AM 35.2569 -109.9003 75° East 488 562 39,000 98 Climbing Albuquerque Center
Sun 11:58:26 AM 35.2908 -109.7494 75° East 483 556 39,000  Level Albuquerque Center
Sun 11:59:28 AM 35.3300 -109.5686 75° East 489 563 39,000  Level Albuquerque Center
Sun 12:00:29 PM 35.3631 -109.4125 75° East 494 568 39,000  Level Albuquerque Center
Sun 12:01:31 PM 35.4022 -109.2267 75° East 502 578 39,000  Level Albuquerque Center
Sun 12:02:33 PM 35.4353 -109.0683 76° East 502 578 39,000  Level Albuquerque Center
Sun 12:03:34 PM 35.4722 -108.8842 76° East 501 577 39,000  Level Albuquerque Center
Sun 12:04:36 PM 35.4867 -108.7222 84° East 501 577 39,000  Level Albuquerque Center
Sun 12:05:38 PM 35.4978 -108.5342 86° East 499 574 39,000  Level Albuquerque Center
Sun 12:06:39 PM 35.5072 -108.3728 86° East 498 573 39,000  Level Albuquerque Center
Sun 12:07:41 PM 35.5178 -108.2119 85° East 497 572 39,000  Level Albuquerque Center
Sun 12:08:43 PM 35.5289 -108.0233 86° East 498 573 39,000  Level Albuquerque Center
Sun 12:09:45 PM 35.5386 -107.8617 86° East 497 572 39,000  Level Albuquerque Center
Sun 12:10:46 PM 35.5481 -107.6731 86° East 497 572 39,000  Level Albuquerque Center
Sun 12:11:48 PM 35.5567 -107.5119 86° East 496 571 39,000  Level Albuquerque Center
Sun 12:12:50 PM 35.5667 -107.3228 86° East 497 572 39,000  Level Albuquerque Center
Sun 12:13:52 PM 35.5733 -107.1522 87° East 498 573 39,000  Level Albuquerque Center
Sun 12:14:54 PM 35.5833 -106.9686 86° East 501 577 39,000  Level Albuquerque Center
Sun 12:15:55 PM 35.5911 -106.7994 87° East 497 572 39,000  Level Albuquerque Center
Sun 12:16:57 PM 35.5983 -106.6308 87° East 494 568 39,000  Level Albuquerque Center
Sun 12:17:59 PM 35.6075 -106.4494 86° East 495 570 39,000  Level Albuquerque Center
Sun 12:19:01 PM 35.6142 -106.2800 87° East 495 570 39,000  Level Albuquerque Center
Sun 12:20:03 PM 35.6231 -106.1319 86° East 500 575 39,000  Level Albuquerque Center
Sun 12:21:05 PM 35.6322 -105.9308 87° East 493 567 39,000  Level Albuquerque Center
Sun 12:22:06 PM 35.6367 -105.7633 88° East 490 564 39,000  Level Albuquerque Center
Sun 12:23:08 PM 35.6439 -105.5972 87° East 488 562 39,000  Level Albuquerque Center
Sun 12:24:10 PM 35.6475 -105.4353 88° East 485 558 39,000  Level Albuquerque Center
Sun 12:25:12 PM 35.6539 -105.2689 87° East 482 555 39,000  Level Albuquerque Center
Sun 12:26:14 PM 35.6603 -105.1033 87° East 480 552 39,000  Level Albuquerque Center
Sun 12:27:15 PM 35.6692 -104.9108 87° East 478 550 39,000  Level Albuquerque Center
Sun 12:28:17 PM 35.6764 -104.7492 87° East 471 542 39,000  Level Albuquerque Center
Sun 12:29:19 PM 35.6839 -104.5858 87° East 471 542 39,000  Level Albuquerque Center
Sun 12:30:21 PM 35.6922 -104.4236 86° East 470 541 39,000  Level Albuquerque Center
Sun 12:31:23 PM 35.6992 -104.2631 87° East 465 535 39,000  Level Albuquerque Center
Sun 12:32:24 PM 35.7069 -104.1022 87° East 464 534 39,000  Level Albuquerque Center
Sun 12:33:26 PM 35.7122 -103.9433 88° East 460 529 39,000  Level Albuquerque Center
Sun 12:34:28 PM 35.7194 -103.7856 87° East 457 526 39,000  Level Albuquerque Center
Sun 12:35:30 PM 35.7250 -103.6283 87° East 455 524 39,000  Level Albuquerque Center
Sun 12:36:32 PM 35.7300 -103.4742 88° East 449 517 39,000  Level Albuquerque Center
Sun 12:37:34 PM 35.7358 -103.3197 87° East 447 514 39,000  Level Albuquerque Center
Sun 12:38:36 PM 35.7428 -103.1428 87° East 442 509 39,000  Level Albuquerque Center
Sun 12:39:37 PM 35.7478 -102.9908 88° East 441 507 39,000  Level Albuquerque Center
Sun 12:40:39 PM 35.7514 -102.8592 88° East 441 507 39,000  Level Albuquerque Center
Sun 12:41:41 PM 35.7572 -102.6789 88° East 440 506 39,000  Level Albuquerque Center
Sun 12:42:43 PM 35.7619 -102.5289 88° East 439 505 39,000  Level Albuquerque Center
Sun 12:43:45 PM 35.7650 -102.3792 89° East 438 504 39,000  Level Albuquerque Center
Sun 12:44:47 PM 35.7700 -102.2289 88° East 438 504 39,000  Level Albuquerque Center
Sun 12:45:49 PM 35.7739 -102.0786 88° East 439 505 39,000  Level Albuquerque Center
Sun 12:46:51 PM 35.7769 -101.9286 89° East 438 504 39,000  Level Albuquerque Center
Sun 12:47:53 PM 35.7817 -101.7783 88° East 438 504 39,000  Level Albuquerque Center
Sun 12:48:55 PM 35.7844 -101.5975 89° East 438 504 39,000  Level Albuquerque Center
Sun 12:49:57 PM 35.7881 -101.4464 88° East 439 505 39,000  Level Albuquerque Center
Sun 12:50:59 PM 35.7914 -101.2944 88° East 440 506 39,000  Level Albuquerque Center
Sun 12:52:01 PM 35.7931 -101.1431 89° East 441 507 39,000  Level Albuquerque Center
Sun 12:53:03 PM 35.7950 -100.9911 89° East 442 509 39,000  Level Albuquerque Center
Sun 12:54:05 PM 35.7956 -100.8417 90° East 441 507 39,000  Level Albuquerque Center
Sun 12:55:06 PM 35.7983 -100.6903 89° East 442 509 39,000  Level Albuquerque Center
Sun 12:56:08 PM 35.8006 -100.5078 89° East 443 510 39,000  Level Albuquerque Center
Sun 12:57:10 PM 35.7997 -100.3542 90° East 446 513 39,000  Level Albuquerque Center
Sun 12:58:12 PM 35.8019 -100.2011 89° East 446 513 39,000  Level Albuquerque Center
Sun 12:59:14 PM 35.8044 -100.0481 89° East 447 514 39,000  Level Albuquerque Center
Sun 01:00:16 PM 35.8058 -99.8961 89° East 446 513 39,000  Level Albuquerque Center
Sun 01:01:09 PM 35.8072 -99.7731 89° East 448 516 39,000  Level Kansas City Center
Sun 01:02:12 PM 35.8075 -99.5906 90° East 447 514 39,000  Level Kansas City Center
Sun 01:03:14 PM 35.8075 -99.4364 90° East 451 519 39,000  Level Kansas City Center
Sun 01:04:15 PM 35.8075 -99.2700 90° East 454 522 39,000  Level Kansas City Center
Sun 01:05:18 PM 35.8081 -99.1142 90° East 456 525 39,000  Level Kansas City Center
Sun 01:06:19 PM 35.8100 -98.9583 89° East 456 525 39,000  Level Kansas City Center
Sun 01:07:21 PM 35.8097 -98.8036 90° East 451 519 39,000  Level Kansas City Center
Sun 01:08:22 PM 35.8092 -98.6350 90° East 452 520 39,000  Level Kansas City Center
Sun 01:09:26 PM 35.8089 -98.4806 90° East 452 520 39,000  Level Kansas City Center
Sun 01:10:27 PM 35.8092 -98.3256 90° East 453 521 39,000  Level Kansas City Center
Sun 01:11:31 PM 35.8078 -98.1708 91° East 452 520 39,000  Level Kansas City Center
Sun 01:12:31 PM 35.8086 -97.9989 90° East 451 519 39,000  Level Kansas City Center
Sun 01:13:35 PM 35.8356 -97.8489 77° East 448 516 39,000 290 Level Kansas City Center
Sun 01:14:35 PM 35.8650 -97.6997 76° East 447 514 39,600 484 Climbing Kansas City Center
Sun 01:15:39 PM 35.8917 -97.5506 78° East 445 512 40,000 194 Climbing Kansas City Center
Sun 01:16:39 PM 35.9178 -97.4014 78° East 443 510 40,000  Level Kansas City Center
Sun 01:17:43 PM 35.9503 -97.2264 77° East 437 503 40,000  Level Kansas City Center
Sun 01:18:44 PM 35.9758 -97.0786 78° East 439 505 40,000  Level Kansas City Center
Sun 01:19:45 PM 36.0031 -96.9303 77° East 441 507 40,000  Level Kansas City Center
Sun 01:20:49 PM 36.0289 -96.7828 78° East 440 506 40,000  Level Kansas City Center
Sun 01:21:49 PM 36.0542 -96.6367 78° East 438 504 40,000  Level Kansas City Center
Sun 01:22:51 PM 36.0806 -96.4817 78° East 438 504 40,000  Level Kansas City Center
Sun 01:23:54 PM 36.1039 -96.3347 79° East 437 503 40,000  Level Kansas City Center
Sun 01:24:55 PM 36.1300 -96.1856 78° East 441 507 40,000  Level Kansas City Center
Sun 01:25:59 PM 36.1542 -96.0378 79° East 439 505 40,000  Level Kansas City Center
Sun 01:27:00 PM 36.1825 -95.8614 79° East 437 503 40,000  Level Kansas City Center
Sun 01:28:01 PM 36.2000 -95.7189 81° East 438 504 40,000  Level Kansas City Center
Sun 01:29:05 PM 36.2028 -95.5667 89° East 443 510 40,000  Level Kansas City Center
Sun 01:30:06 PM 36.2069 -95.4139 88° East 448 516 40,000  Level Kansas City Center
Sun 01:31:09 PM 36.2114 -95.2294 88° East 449 517 40,000  Level Kansas City Center
Sun 01:32:10 PM 36.2186 -95.0769 87° East 445 512 40,000  Level Kansas City Center
Sun 01:33:11 PM 36.2233 -94.9253 88° East 443 510 40,000  Level Kansas City Center
Sun 01:34:15 PM 36.2281 -94.7736 88° East 442 509 40,000  Level Kansas City Center
Sun 01:35:15 PM 36.2325 -94.6217 88° East 443 510 40,000 -242 Level Kansas City Center
Sun 01:36:19 PM 36.2367 -94.4697 88° East 442 509 39,500 -484 Descending Kansas City Center
Sun 01:37:19 PM 36.2406 -94.2889 88° East 439 505 39,000 -244 Descending Kansas City Center
Sun 01:38:22 PM 36.2439 -94.1378 88° East 439 505 39,000  Level Kansas City Center
Sun 01:39:23 PM 36.2150 -94.0075 105° East 440 506 39,000  Level Kansas City Center
Sun 01:40:27 PM 36.1733 -93.8611 109° East 448 516 39,000  Level Kansas City Center
Sun 01:41:28 PM 36.1242 -93.6881 109° East 446 513 39,000  Level Kansas City Center
Sun 01:42:42 PM 36.0731 -93.5078 109° East 443 510 39,000  Level Memphis Center
Sun 01:43:42 PM 36.0328 -93.3625 109° East 443 510 39,000  Level Memphis Center
Sun 01:44:42 PM 35.9944 -93.2228 109° East 443 510 39,000  Level Memphis Center
Sun 01:45:42 PM 35.9539 -93.0778 109° East 438 504 39,000  Level Memphis Center
Sun 01:46:42 PM 35.9111 -92.9328 110° East 438 504 39,000  Level Memphis Center
Sun 01:47:42 PM 35.8703 -92.7881 109° East 443 510 39,000  Level Memphis Center
Sun 01:48:42 PM 35.8292 -92.6433 109° East 443 510 39,000  Level Memphis Center
Sun 01:49:42 PM 35.7858 -92.5014 111° Southeast 448 516 39,000  Level Memphis Center
Sun 01:50:42 PM 35.7444 -92.3572 109° East 448 516 39,000  Level Memphis Center
Sun 01:51:42 PM 35.7006 -92.2181 111° Southeast 448 516 39,000  Level Memphis Center
Sun 01:52:42 PM 35.6608 -92.0767 109° East 442 509 39,000  Level Memphis Center
Sun 01:53:42 PM 35.6192 -91.9353 110° East 442 509 39,000  Level Memphis Center
Sun 01:54:42 PM 35.5789 -91.7967 110° East 437 503 39,000  Level Memphis Center
Sun 01:55:42 PM 35.5367 -91.6556 110° East 432 497 39,000  Level Memphis Center
Sun 01:56:42 PM 35.4942 -91.5172 111° Southeast 432 497 39,000  Level Memphis Center
Sun 01:57:42 PM 35.4600 -91.3944 109° East 432 497 39,000  Level Memphis Center
Sun 01:58:42 PM 35.4089 -91.2386 112° Southeast 432 497 39,000  Level Memphis Center
Sun 01:59:42 PM 35.3661 -91.1031 111° Southeast 432 497 39,000  Level Memphis Center
Sun 02:00:42 PM 35.3250 -90.9703 111° Southeast 426 490 39,000  Level Memphis Center
Sun 02:01:42 PM 35.2861 -90.8328 109° East 426 490 39,000  Level Memphis Center
Sun 02:02:42 PM 35.2428 -90.6953 111° Southeast 432 497 39,000  Level Memphis Center
Sun 02:03:42 PM 35.1969 -90.5553 112° Southeast 432 497 39,000  Level Memphis Center
Sun 02:04:42 PM 35.1556 -90.4206 111° Southeast 432 497 39,000  Level Memphis Center
Sun 02:05:42 PM 35.1094 -90.2783 112° Southeast 432 497 39,000  Level Memphis Center
Sun 02:06:42 PM 35.0678 -90.1414 110° East 432 497 39,000  Level Memphis Center
Sun 02:07:42 PM 35.0297 -90.0172 110° East 432 497 39,000  Level Memphis Center
Sun 02:08:42 PM 35.0064 -89.8703 101° East 432 497 39,000  Level Memphis Center
Sun 02:09:42 PM 34.9828 -89.7158 101° East 454 522 39,000  Level Memphis Center
Sun 02:10:42 PM 34.9567 -89.5514 101° East 466 536 39,000  Level Memphis Center
Sun 02:11:42 PM 34.9328 -89.4072 101° East 442 509 39,000  Level Memphis Center
Sun 02:12:42 PM 34.9106 -89.2631 101° East 426 490 39,000  Level Memphis Center
Sun 02:13:42 PM 34.8886 -89.1242 101° East 426 490 39,000  Level Memphis Center
Sun 02:14:42 PM 34.8661 -88.9778 101° East 431 496 39,000 -200 Level Memphis Center
Sun 02:15:42 PM 34.8436 -88.8389 101° East 425 489 38,600 -600 Descending Memphis Center
Sun 02:16:42 PM 34.8233 -88.7128 101° East 425 489 37,800 -700 Descending Memphis Center
Sun 02:17:42 PM 34.8003 -88.5664 101° East 430 495 37,200 -600 Descending Memphis Center
Sun 02:18:42 PM 34.7817 -88.4406 100° East 404 465 36,600 -750 Descending Memphis Center
Sun 02:19:42 PM 34.7608 -88.3019 100° East 404 465 35,700 -800 Descending Memphis Center
Sun 02:20:42 PM 34.7375 -88.1583 101° East 417 480 35,000 -350 Descending Memphis Center
Sun 02:21:42 PM 34.7139 -88.0125 101° East 430 495 35,000  Level Memphis Center
Sun 02:22:42 PM 34.6900 -87.8592 101° East 430 495 35,000 -400 Level Memphis Center
Sun 02:23:42 PM 34.6683 -87.7133 100° East 430 495 34,200 -900 Descending Memphis Center
Sun 02:24:42 PM 34.6400 -87.5703 103° East 430 495 33,200 -600 Descending Memphis Center
Sun 02:25:42 PM 34.6139 -87.4350 103° East 416 479 33,000 -98 Descending Memphis Center
Sun 02:26:45 PM 34.5928 -87.2786 99° East 447 514 33,000  Level Atlanta Center
Sun 02:27:45 PM 34.5650 -87.1389 104° East 441 507 33,000  Level Atlanta Center
Sun 02:28:45 PM 34.5372 -86.9992 104° East 429 494 33,000  Level Atlanta Center
Sun 02:29:45 PM 34.5092 -86.8569 103° East 429 494 33,000 -400 Level Atlanta Center
Sun 02:30:45 PM 34.4811 -86.7175 104° East 429 494 32,200 -1,050 Descending Atlanta Center
Sun 02:31:45 PM 34.4550 -86.5706 102° East 429 494 30,900 -1,200 Descending Atlanta Center
Sun 02:32:45 PM 34.4264 -86.4261 103° East 435 501 29,800 -950 Descending Atlanta Center
Sun 02:33:45 PM 34.3978 -86.2844 104° East 435 501 29,000 -750 Descending Atlanta Center
Sun 02:34:45 PM 34.3711 -86.1428 103° East 435 501 28,300 -850 Descending Atlanta Center
Sun 02:35:45 PM 34.3442 -86.0061 103° East 430 495 27,300 -1,600 Descending Atlanta Center
Sun 02:36:45 PM 34.3150 -85.8697 104° East 425 489 25,100 -2,150 Descending Atlanta Center
Sun 02:37:45 PM 34.2939 -85.7436 101° East 391 450 23,000 -2,100 Descending Atlanta Center
Sun 02:38:45 PM 34.2642 -85.6097 105° East 393 452 20,900 -1,950 Descending Atlanta Center
Sun 02:39:45 PM 34.2389 -85.4786 103° East 401 461 19,100 -1,350 Descending Atlanta Center
Sun 02:40:45 PM 34.2111 -85.3500 105° East 401 461 18,200 -1,600 Descending Atlanta Center
Sun 02:41:45 PM 34.1892 -85.2342 103° East 395 455 15,900 -2,500 Descending Atlanta Center
Sun 02:42:45 PM 34.1528 -85.1081 109° East 401 461 13,200 -1,450 Descending Atlanta Center
Sun 02:43:45 PM 34.0889 -85.0219 132° Southeast 361 415 13,000 -400 Descending Atlanta Center
Sun 02:44:45 PM 34.0308 -84.9486 134° Southeast 319 367 12,400 -1,000 Descending Atlanta Center
Sun 02:45:45 PM 33.9731 -84.8756 134° Southeast 299 344 11,000 -1,350 Descending Atlanta Center
Sun 02:46:45 PM 33.9172 -84.8047 134° Southeast 299 344 9,700 -1,550 Descending Atlanta Center
Sun 02:47:45 PM 33.8611 -84.7367 135° Southeast 294 338 7,900 -1,734 Descending Atlanta Center
Sun 02:48:53 PM 33.7667 -84.7500 187° South 293 337 6,000 -1,209 Descending Atlanta TRACON
Sun 02:49:59 PM 33.6833 -84.7667 189° South 239 275 5,200 -524 Descending Atlanta TRACON
Sun 02:50:59 PM 33.6500 -84.7167 129° Southeast 195 224 4,900 -400 Descending Atlanta TRACON
Sun 02:51:59 PM 33.6500 -84.6667 90° East 184 212 4,400 -650 Descending Atlanta TRACON
Sun 02:52:59 PM 33.6500 -84.6000 90° East 195 224 3,600 -947 Descending Atlanta TRACON
Sun 02:53:53 PM 33.6500 -84.5333 90° East 192 221 2,600 -1,000 Descending Atlanta TRACON
Sun 02:54:53 PM 33.6500 -84.4833 90° East 154 177 1,700 -900 Descending Atlanta TRACON

Login

Don't have an account? Register now (free) for customized features, flight alerts, and more!